Time;durP1;ratioP1;P1;durP2;ratioP2;P2;SDS_P1;SDS_P2;PMS_P1;PMS_P2;Temp;Humidity;BMP_temperature;BMP_pressure;BME280_temperature;BME280_humidity;BME280_pressure;Samples;Min_cycle;Max_cycle;Signal;HPM_P1;HPM_P2
2021/04/14 00:00:30;;;;;;;0.75;0.60;;;11.20;72.10;;;;;;5116138;28;20092;-42
2021/04/14 00:02:56;;;;;;;0.50;0.50;;;11.20;72.20;;;;;;5116286;28;20047;-44
2021/04/14 00:05:28;;;;;;;0.63;0.60;;;11.20;72.20;;;;;;5116477;28;20120;-44
2021/04/14 00:07:54;;;;;;;0.93;0.80;;;11.20;72.20;;;;;;5116792;28;20040;-43
2021/04/14 00:10:29;;;;;;;1.40;0.60;;;11.20;72.20;;;;;;5116190;28;20373;-44
2021/04/14 00:12:56;;;;;;;0.52;0.52;;;11.10;72.10;;;;;;5115731;28;20368;-46
2021/04/14 00:15:27;;;;;;;0.63;0.57;;;11.10;72.20;;;;;;5116382;28;20047;-42
2021/04/14 00:17:53;;;;;;;0.50;0.50;;;11.20;72.20;;;;;;5116291;28;20046;-46
2021/04/14 00:20:19;;;;;;;0.77;0.57;;;11.20;72.20;;;;;;5115825;28;20043;-43
2021/04/14 00:22:44;;;;;;;0.65;0.60;;;11.20;72.20;;;;;;5115775;28;20040;-43
2021/04/14 00:25:33;;;;;;;1.65;1.00;;;11.20;72.20;;;;;;5114212;28;20044;-42
2021/04/14 00:27:59;;;;;;;0.70;0.70;;;11.20;72.20;;;;;;5116170;28;20069;-42
2021/04/14 00:30:26;;;;;;;1.05;0.57;;;11.10;72.20;;;;;;5116107;28;20051;-44
2021/04/14 00:32:52;;;;;;;0.60;0.60;;;11.20;72.30;;;;;;5115745;28;20036;-41
2021/04/14 00:35:21;;;;;;;1.10;0.73;;;11.10;72.20;;;;;;5115750;28;20050;-42
2021/04/14 00:37:47;;;;;;;0.77;0.70;;;11.10;72.30;;;;;;5113732;28;20047;-42
2021/04/14 00:40:20;;;;;;;0.65;0.60;;;11.20;72.30;;;;;;5116103;28;20054;-45
2021/04/14 00:42:46;;;;;;;0.50;0.50;;;11.10;72.30;;;;;;5113024;28;20044;-45
2021/04/14 00:45:12;;;;;;;0.40;0.40;;;11.10;72.30;;;;;;5115553;28;20108;-46
2021/04/14 00:47:38;;;;;;;0.60;0.60;;;11.20;72.30;;;;;;5115593;28;20489;-43
2021/04/14 00:50:13;;;;;;;1.10;0.60;;;11.10;72.30;;;;;;5115465;28;20048;-45
2021/04/14 00:52:39;;;;;;;0.87;0.60;;;11.10;72.30;;;;;;5112755;28;20117;-40
2021/04/14 00:55:07;;;;;;;0.40;0.40;;;11.10;72.30;;;;;;5115753;28;20317;-47
2021/04/14 00:57:33;;;;;;;0.60;0.60;;;11.10;72.30;;;;;;5115332;28;20415;-47
2021/04/14 00:59:59;;;;;;;0.60;0.60;;;11.10;72.30;;;;;;5115561;28;20036;-43
2021/04/14 01:02:29;;;;;;;0.52;0.52;;;11.10;72.30;;;;;;5115604;28;20047;-44
2021/04/14 01:04:55;;;;;;;0.90;0.68;;;11.10;72.30;;;;;;5114561;28;20089;-44
2021/04/14 01:07:21;;;;;;;0.60;0.60;;;11.10;72.30;;;;;;5115094;28;20120;-42
2021/04/14 01:09:47;;;;;;;1.00;0.60;;;11.10;72.20;;;;;;5115232;28;20502;-43
2021/04/14 01:12:14;;;;;;;0.95;0.52;;;11.10;72.20;;;;;;5114981;28;20499;-42
2021/04/14 01:14:41;;;;;;;0.80;0.68;;;11.10;72.20;;;;;;5115059;28;20052;-41
2021/04/14 01:17:06;;;;;;;0.68;0.68;;;11.10;72.20;;;;;;5115126;28;20674;-45
2021/04/14 01:19:32;;;;;;;0.50;0.50;;;11.10;72.30;;;;;;5115292;28;20051;-42
2021/04/14 01:21:58;;;;;;;0.40;0.40;;;11.10;72.30;;;;;;5114810;28;20043;-47
2021/04/14 01:24:23;;;;;;;0.98;0.80;;;11.10;72.30;;;;;;5114726;28;20407;-43
2021/04/14 01:26:51;;;;;;;1.45;0.70;;;11.10;72.20;;;;;;5114763;28;20043;-47
2021/04/14 01:29:17;;;;;;;0.52;0.50;;;11.10;72.30;;;;;;5115177;28;20036;-46
2021/04/14 01:31:43;;;;;;;0.60;0.60;;;11.10;72.30;;;;;;5115232;28;20049;-46
2021/04/14 01:34:16;;;;;;;0.57;0.52;;;11.10;72.30;;;;;;5114894;28;20449;-45
2021/04/14 01:36:42;;;;;;;0.43;0.40;;;11.10;72.30;;;;;;5111928;28;20483;-46
2021/04/14 01:39:10;;;;;;;0.60;0.60;;;11.10;72.30;;;;;;5114539;28;20051;-44
2021/04/14 01:41:36;;;;;;;0.73;0.57;;;11.10;72.30;;;;;;5113430;28;20035;-41
2021/04/14 01:44:04;;;;;;;0.50;0.50;;;11.10;72.30;;;;;;5115003;28;20040;-40
2021/04/14 01:46:30;;;;;;;0.50;0.50;;;11.10;72.30;;;;;;5114329;28;20047;-40
2021/04/14 01:48:56;;;;;;;0.50;0.50;;;11.10;72.30;;;;;;5113991;28;20440;-41
2021/04/14 01:51:24;;;;;;;1.27;0.70;;;11.10;72.30;;;;;;5114309;28;20172;-41
2021/04/14 01:53:50;;;;;;;0.98;0.90;;;11.10;72.30;;;;;;5112814;28;20491;-40
2021/04/14 01:56:16;;;;;;;1.20;0.57;;;11.10;72.30;;;;;;5114434;28;20046;-39
2021/04/14 01:58:43;;;;;;;0.43;0.43;;;11.10;72.30;;;;;;5113897;28;20040;-46
2021/04/14 02:01:10;;;;;;;0.50;0.50;;;11.10;72.30;;;;;;5114500;28;20042;-45
2021/04/14 02:03:39;;;;;;;0.40;0.40;;;11.10;72.30;;;;;;5114178;28;20044;-45
2021/04/14 02:06:06;;;;;;;0.70;0.50;;;11.10;72.30;;;;;;5114316;28;20075;-45
2021/04/14 02:08:32;;;;;;;0.80;0.80;;;11.00;72.30;;;;;;5113565;28;20633;-44
2021/04/14 02:11:00;;;;;;;0.65;0.50;;;11.10;72.30;;;;;;5114065;28;20071;-42
2021/04/14 02:13:30;;;;;;;0.95;0.68;;;11.00;72.90;;;;;;5114531;28;20164;-43
2021/04/14 02:15:57;;;;;;;0.40;0.40;;;11.10;72.40;;;;;;5113121;28;20070;-44
2021/04/14 02:18:44;;;;;;;0.45;0.40;;;11.00;72.30;;;;;;5110768;28;20077;-39
2021/04/14 02:21:10;;;;;;;0.40;0.40;;;11.00;72.30;;;;;;5113812;28;20043;-42
2021/04/14 02:23:40;;;;;;;1.05;0.50;;;11.00;72.30;;;;;;5113423;28;20411;-45
2021/04/14 02:26:18;;;;;;;0.73;0.50;;;11.00;72.30;;;;;;5114006;28;20051;-42
2021/04/14 02:28:46;;;;;;;1.20;0.73;;;11.00;72.30;;;;;;5111710;28;20040;-42
2021/04/14 02:31:15;;;;;;;2.65;0.60;;;11.00;72.30;;;;;;5114046;28;20135;-42
2021/04/14 02:33:51;;;;;;;0.57;0.50;;;11.00;72.40;;;;;;5112510;28;20046;-41
2021/04/14 02:36:37;;;;;;;0.55;0.45;;;11.00;72.40;;;;;;5112576;28;20071;-42
2021/04/14 02:39:16;;;;;;;0.50;0.50;;;11.00;72.30;;;;;;5112802;28;20518;-42
2021/04/14 02:41:42;;;;;;;0.40;0.40;;;11.00;72.40;;;;;;5113629;28;20046;-43
2021/04/14 02:44:15;;;;;;;0.40;0.40;;;11.00;72.40;;;;;;5113508;28;20058;-43
2021/04/14 02:46:41;;;;;;;1.00;0.40;;;11.00;72.40;;;;;;5113209;28;20044;-44
2021/04/14 02:49:07;;;;;;;0.68;0.47;;;11.00;72.40;;;;;;5113451;28;20404;-42
2021/04/14 02:51:53;;;;;;;0.43;0.30;;;11.00;72.40;;;;;;5111801;28;20043;-43
2021/04/14 02:54:19;;;;;;;0.63;0.43;;;11.00;72.40;;;;;;5110538;28;20047;-40
2021/04/14 02:56:45;;;;;;;0.40;0.40;;;11.00;72.40;;;;;;5113076;28;20039;-43
2021/04/14 02:59:11;;;;;;;0.55;0.40;;;11.00;72.50;;;;;;5113148;28;20551;-43
2021/04/14 03:01:36;;;;;;;0.40;0.40;;;11.00;72.50;;;;;;5112957;28;20123;-44
2021/04/14 03:04:02;;;;;;;0.52;0.47;;;11.00;72.50;;;;;;5112810;28;20530;-42
2021/04/14 03:06:28;;;;;;;0.63;0.50;;;11.10;72.50;;;;;;5113203;28;20121;-41
2021/04/14 03:08:54;;;;;;;0.90;0.50;;;11.00;72.50;;;;;;5113179;28;20079;-45
2021/04/14 03:11:20;;;;;;;0.47;0.40;;;11.00;72.50;;;;;;5112393;28;20044;-46
2021/04/14 03:13:49;;;;;;;0.50;0.50;;;11.00;72.50;;;;;;5113104;28;20085;-42
2021/04/14 03:16:14;;;;;;;0.50;0.40;;;11.00;72.50;;;;;;5112724;28;20127;-45
2021/04/14 03:18:40;;;;;;;0.50;0.50;;;11.00;72.50;;;;;;5113043;28;20043;-40
2021/04/14 03:21:06;;;;;;;0.52;0.52;;;11.00;72.50;;;;;;5112969;28;20047;-41
2021/04/14 03:23:32;;;;;;;0.50;0.50;;;11.00;72.50;;;;;;5112650;28;20078;-41
2021/04/14 03:25:58;;;;;;;0.47;0.47;;;11.00;72.50;;;;;;5111980;28;20051;-41
2021/04/14 03:28:24;;;;;;;0.32;0.32;;;11.00;72.50;;;;;;5112598;28;20048;-41
2021/04/14 03:30:50;;;;;;;0.47;0.40;;;10.90;73.10;;;;;;5112660;28;20055;-41
2021/04/14 03:33:16;;;;;;;0.55;0.47;;;11.00;72.50;;;;;;5112622;28;20492;-41
2021/04/14 03:35:42;;;;;;;0.30;0.30;;;11.00;72.50;;;;;;5113080;28;20035;-42
2021/04/14 03:38:08;;;;;;;0.65;0.65;;;11.00;72.50;;;;;;5112809;28;20050;-41
2021/04/14 03:40:54;;;;;;;0.63;0.52;;;11.00;72.50;;;;;;5110894;28;20495;-40
2021/04/14 03:43:19;;;;;;;1.20;0.52;;;11.00;72.50;;;;;;5112061;28;20035;-38
2021/04/14 03:45:52;;;;;;;0.35;0.35;;;11.00;72.50;;;;;;5110915;28;20063;-39
2021/04/14 03:48:17;;;;;;;0.50;0.50;;;11.00;72.50;;;;;;5112649;28;20070;-39
2021/04/14 03:50:43;;;;;;;0.40;0.40;;;11.00;72.50;;;;;;5112913;28;20067;-40
2021/04/14 03:53:35;;;;;;;0.52;0.40;;;11.00;72.50;;;;;;5110408;28;20060;-39
2021/04/14 03:56:03;;;;;;;0.50;0.50;;;11.00;72.50;;;;;;5111648;28;20523;-41
2021/04/14 03:58:31;;;;;;;0.47;0.40;;;11.00;72.50;;;;;;5112293;28;20063;-40
2021/04/14 04:00:58;;;;;;;1.50;0.60;;;11.00;72.50;;;;;;5112715;28;20048;-41
2021/04/14 04:03:26;;;;;;;0.30;0.30;;;10.90;72.40;;;;;;5112515;28;20123;-42
2021/04/14 04:05:52;;;;;;;0.63;0.40;;;10.90;72.40;;;;;;5112335;28;20047;-42
2021/04/14 04:08:38;;;;;;;0.90;0.70;;;11.00;72.50;;;;;;5111457;28;20071;-42
2021/04/14 04:11:04;;;;;;;0.40;0.40;;;11.00;72.50;;;;;;5112324;28;20132;-41
2021/04/14 04:13:31;;;;;;;0.43;0.43;;;10.90;72.40;;;;;;5112486;28;20044;-43
2021/04/14 04:16:17;;;;;;;1.55;0.80;;;10.90;72.40;;;;;;5111096;28;20063;-42
2021/04/14 04:18:44;;;;;;;0.40;0.40;;;10.90;72.50;;;;;;5112672;28;20043;-42
2021/04/14 04:21:11;;;;;;;0.38;0.30;;;10.90;72.40;;;;;;5110794;28;20051;-40
2021/04/14 04:23:37;;;;;;;0.50;0.50;;;10.90;72.40;;;;;;5112691;28;20144;-42
2021/04/14 04:26:04;;;;;;;0.65;0.43;;;10.90;72.40;;;;;;5111740;28;20043;-41
2021/04/14 04:28:30;;;;;;;0.43;0.40;;;10.90;72.50;;;;;;5110773;28;20074;-40
2021/04/14 04:30:56;;;;;;;0.47;0.47;;;10.90;72.40;;;;;;5111368;28;20067;-41
2021/04/14 04:33:22;;;;;;;0.50;0.50;;;10.90;72.40;;;;;;5111351;28;20056;-40
2021/04/14 04:36:08;;;;;;;;;;;10.90;72.40;;;;;;5111032;28;20047;-40
2021/04/14 04:38:34;;;;;;;;;;;10.90;72.50;;;;;;5112637;28;20280;-41
2021/04/14 04:41:02;;;;;;;0.40;0.40;;;10.90;72.50;;;;;;5114215;28;19926;-42
2021/04/14 04:43:29;;;;;;;0.60;0.43;;;10.80;72.40;;;;;;5115544;28;20043;-41
2021/04/14 04:45:56;;;;;;;0.50;0.50;;;10.90;72.50;;;;;;5115886;28;20040;-40
2021/04/14 04:48:22;;;;;;;0.43;0.40;;;10.80;72.40;;;;;;5115471;28;20047;-47
2021/04/14 04:50:47;;;;;;;0.30;0.30;;;10.80;72.40;;;;;;5115292;28;20058;-46
2021/04/14 04:53:17;;;;;;;0.45;0.45;;;10.90;72.50;;;;;;5116160;28;20052;-44
2021/04/14 04:55:47;;;;;;;0.43;0.40;;;10.90;72.50;;;;;;5116144;28;20449;-44
2021/04/14 04:58:13;;;;;;;1.10;0.40;;;10.90;72.50;;;;;;5115793;28;20499;-40
2021/04/14 05:00:39;;;;;;;0.47;0.47;;;10.90;72.50;;;;;;5115333;28;20499;-42
2021/04/14 05:03:06;;;;;;;0.60;0.40;;;10.90;72.50;;;;;;5115801;28;20082;-42
2021/04/14 05:05:34;;;;;;;0.52;0.47;;;10.90;72.50;;;;;;5115915;28;20130;-42
2021/04/14 05:08:00;;;;;;;0.45;0.40;;;10.90;72.50;;;;;;5115470;28;20051;-41
2021/04/14 05:10:46;;;;;;;0.40;0.40;;;10.90;72.50;;;;;;5094653;28;20381;-42
2021/04/14 05:13:12;;;;;;;0.50;0.50;;;10.90;72.50;;;;;;5095479;28;20044;-43
2021/04/14 05:15:39;;;;;;;0.40;0.40;;;10.80;72.50;;;;;;5094952;28;20510;-42
2021/04/14 05:18:06;;;;;;;0.30;0.30;;;10.90;72.50;;;;;;5095319;28;20055;-43
2021/04/14 05:20:32;;;;;;;0.40;0.40;;;10.80;72.50;;;;;;5111285;28;20047;-41
2021/04/14 05:22:58;;;;;;;0.40;0.40;;;10.90;72.50;;;;;;5115864;28;20044;-44
2021/04/14 05:25:27;;;;;;;0.40;0.40;;;10.90;72.50;;;;;;5115765;28;20047;-45
2021/04/14 05:27:56;;;;;;;0.40;0.40;;;10.80;72.50;;;;;;5115541;28;20126;-48
2021/04/14 05:30:22;;;;;;;0.50;0.50;;;10.90;72.50;;;;;;5114889;28;20087;-47
2021/04/14 05:32:49;;;;;;;0.30;0.30;;;10.80;72.50;;;;;;5115048;28;20139;-46
2021/04/14 05:35:36;;;;;;;0.47;0.47;;;10.80;72.50;;;;;;5113524;28;20067;-47
2021/04/14 05:38:02;;;;;;;0.65;0.40;;;10.90;72.50;;;;;;5114912;28;20044;-43
2021/04/14 05:40:28;;;;;;;0.73;0.40;;;10.80;72.50;;;;;;5114378;28;20047;-43
2021/04/14 05:43:24;;;;;;;0.50;0.50;;;10.90;72.50;;;;;;5113229;28;20059;-45
2021/04/14 05:45:55;;;;;;;0.30;0.30;;;10.80;72.50;;;;;;5114337;28;20042;-43
2021/04/14 05:48:21;;;;;;;0.65;0.40;;;10.80;72.50;;;;;;5112032;28;20513;-46
2021/04/14 05:50:46;;;;;;;0.40;0.40;;;10.80;72.50;;;;;;5114042;28;20111;-41
2021/04/14 05:53:12;;;;;;;0.75;0.30;;;10.80;72.50;;;;;;5114396;28;20161;-43
2021/04/14 05:55:38;;;;;;;0.50;0.40;;;10.80;72.50;;;;;;5115008;28;20506;-43
2021/04/14 05:58:04;;;;;;;0.40;0.30;;;10.80;72.50;;;;;;5114850;28;20043;-47
2021/04/14 06:00:29;;;;;;;0.43;0.40;;;10.80;72.50;;;;;;5114722;28;20082;-47
2021/04/14 06:02:55;;;;;;;0.40;0.40;;;10.80;72.50;;;;;;5113708;28;20054;-44
2021/04/14 06:05:23;;;;;;;0.50;0.50;;;10.80;72.50;;;;;;5114341;28;20139;-47
2021/04/14 06:07:49;;;;;;;0.52;0.52;;;10.80;72.50;;;;;;5114915;28;20039;-44
2021/04/14 06:10:19;;;;;;;0.82;0.47;;;10.80;72.50;;;;;;5114407;28;20496;-47
2021/04/14 06:12:46;;;;;;;1.20;0.50;;;10.80;72.50;;;;;;5114284;28;20062;-46
2021/04/14 06:15:15;;;;;;;0.30;0.30;;;10.80;72.50;;;;;;5114747;28;20043;-45
2021/04/14 06:17:42;;;;;;;0.40;0.40;;;10.80;72.50;;;;;;5114096;28;20096;-47
2021/04/14 06:20:11;;;;;;;0.30;0.30;;;10.80;72.50;;;;;;5114455;28;20047;-46
2021/04/14 06:22:37;;;;;;;0.52;0.52;;;10.80;72.50;;;;;;5114053;28;20114;-46
2021/04/14 06:25:06;;;;;;;0.35;0.30;;;10.80;72.60;;;;;;5114120;28;20052;-46
2021/04/14 06:27:48;;;;;;;0.32;0.32;;;10.80;72.60;;;;;;5113790;28;20051;-45
2021/04/14 06:30:15;;;;;;;0.77;0.40;;;10.80;72.50;;;;;;5113766;28;20107;-48
2021/04/14 06:32:41;;;;;;;0.50;0.50;;;10.80;72.60;;;;;;5113271;28;20487;-43
2021/04/14 06:35:08;;;;;;;1.92;0.50;;;10.80;72.60;;;;;;5113374;28;20047;-46
2021/04/14 06:37:54;;;;;;;0.30;0.30;;;10.80;72.60;;;;;;5112402;28;20557;-44
2021/04/14 06:43:08;;;;;;;0.52;0.43;;;10.90;72.70;;;;;;5113667;28;20089;-41
2021/04/14 06:45:58;;;;;;;0.47;0.47;;;10.80;72.60;;;;;;5113379;28;20085;-43
2021/04/14 06:48:47;;;;;;;0.52;0.52;;;10.80;72.60;;;;;;5111362;28;20487;-44
2021/04/14 06:51:25;;;;;;;0.30;0.30;;;10.80;72.70;;;;;;5069370;28;20066;-49
2021/04/14 06:54:31;;;;;;;2.72;0.90;;;10.80;72.60;;;;;;5056246;28;20045;-42
2021/04/14 06:57:01;;;;;;;1.65;0.60;;;10.90;72.00;;;;;;5067962;28;20056;-43
2021/04/14 06:59:52;;;;;;;0.75;0.60;;;10.90;71.90;;;;;;5055205;28;20041;-42
2021/04/14 07:02:30;;;;;;;1.60;0.77;;;10.90;71.80;;;;;;5067843;28;20110;-44
2021/04/14 07:05:03;;;;;;;1.55;0.60;;;10.90;71.70;;;;;;5067118;28;20056;-42
2021/04/14 07:07:32;;;;;;;2.63;0.63;;;10.90;71.80;;;;;;5070343;28;20117;-41
2021/04/14 07:10:05;;;;;;;0.88;0.50;;;10.90;71.70;;;;;;5067774;28;20056;-42
2021/04/14 07:12:31;;;;;;;3.22;0.60;;;10.90;71.70;;;;;;5067497;28;20048;-40
2021/04/14 07:15:00;;;;;;;1.38;0.98;;;10.90;71.80;;;;;;5069569;28;20052;-40
2021/04/14 07:17:38;;;;;;;3.65;1.00;;;10.90;71.80;;;;;;5067491;28;20550;-41
2021/04/14 07:20:21;;;;;;;0.75;0.60;;;10.90;71.80;;;;;;5070219;28;20472;-41
2021/04/14 07:23:18;;;;;;;3.20;0.60;;;10.90;71.80;;;;;;5060466;28;20060;-40
2021/04/14 07:25:58;;;;;;;0.68;0.40;;;10.90;71.90;;;;;;5050677;28;20067;-42
2021/04/14 07:28:46;;;;;;;0.95;0.70;;;10.90;71.90;;;;;;5062290;28;20455;-45
2021/04/14 07:31:21;;;;;;;1.83;0.85;;;10.90;71.90;;;;;;5072806;28;20097;-42
2021/04/14 07:34:22;;;;;;;0.60;0.60;;;10.90;72.00;;;;;;5073800;28;20124;-45
2021/04/14 07:36:53;;;;;;;0.50;0.50;;;10.90;72.00;;;;;;5072517;28;20049;-42
2021/04/14 07:39:24;;;;;;;2.42;0.70;;;10.90;72.00;;;;;;5072744;28;20040;-44
2021/04/14 07:42:33;;;;;;;0.50;0.50;;;10.90;72.10;;;;;;5072455;28;20477;-42
2021/04/14 07:45:08;;;;;;;0.93;0.57;;;10.90;72.10;;;;;;5075614;28;20411;-41
2021/04/14 07:47:35;;;;;;;0.40;0.40;;;10.90;72.10;;;;;;5093103;28;20105;-43
2021/04/14 07:50:02;;;;;;;0.52;0.52;;;10.90;72.10;;;;;;5092238;28;20383;-43
2021/04/14 07:52:31;;;;;;;0.65;0.47;;;10.90;72.20;;;;;;5092581;28;20059;-45
2021/04/14 07:54:58;;;;;;;1.38;0.60;;;10.90;72.20;;;;;;5089916;28;20064;-43
2021/04/14 07:57:30;;;;;;;0.40;0.40;;;11.00;72.20;;;;;;5092100;28;20123;-42
2021/04/14 08:00:07;;;;;;;0.55;0.43;;;11.00;72.20;;;;;;5092099;28;20420;-43
2021/04/14 08:02:33;;;;;;;0.70;0.50;;;11.00;72.20;;;;;;5090136;28;20054;-42
2021/04/14 08:05:12;;;;;;;0.98;0.65;;;11.00;72.20;;;;;;5091291;28;20055;-41
2021/04/14 08:07:42;;;;;;;0.50;0.50;;;11.00;72.20;;;;;;5090931;28;20047;-43
2021/04/14 08:10:12;;;;;;;1.38;0.80;;;11.00;72.20;;;;;;5089228;28;20101;-47
2021/04/14 08:12:50;;;;;;;0.77;0.55;;;11.00;72.20;;;;;;5092566;28;20056;-43
2021/04/14 08:15:28;;;;;;;0.60;0.47;;;11.00;72.20;;;;;;5089502;28;20727;-42
2021/04/14 08:18:17;;;;;;;1.20;0.70;;;11.00;72.20;;;;;;5075904;28;20041;-46
2021/04/14 08:20:46;;;;;;;0.75;0.75;;;11.10;72.30;;;;;;5075782;28;20048;-41
2021/04/14 08:23:23;;;;;;;0.73;0.50;;;11.00;72.20;;;;;;5074478;28;20044;-45
2021/04/14 08:25:55;;;;;;;0.77;0.55;;;11.10;72.20;;;;;;5077135;28;20056;-44
2021/04/14 08:28:33;;;;;;;0.38;0.38;;;11.10;72.20;;;;;;5075844;28;20058;-45
2021/04/14 08:31:10;;;;;;;0.43;0.40;;;11.10;72.20;;;;;;5075626;28;20554;-41
2021/04/14 08:33:36;;;;;;;0.57;0.47;;;11.10;72.10;;;;;;5075717;28;20060;-42
2021/04/14 08:36:30;;;;;;;0.55;0.50;;;11.10;72.10;;;;;;5076647;28;20190;-40
2021/04/14 08:38:56;;;;;;;1.27;0.70;;;11.10;72.70;;;;;;5075344;28;20052;-42
2021/04/14 08:41:31;;;;;;;0.68;0.50;;;11.10;72.10;;;;;;5075706;28;20046;-42
2021/04/14 08:44:13;;;;;;;1.30;0.50;;;11.20;72.10;;;;;;5075613;28;20052;-42
2021/04/14 08:46:42;;;;;;;1.20;0.60;;;11.10;72.00;;;;;;5076078;28;20050;-41
2021/04/14 08:49:19;;;;;;;0.60;0.32;;;11.20;72.10;;;;;;5075415;28;20070;-42
2021/04/14 08:51:48;;;;;;;0.57;0.38;;;11.20;72.00;;;;;;5090793;28;20075;-41
2021/04/14 08:54:22;;;;;;;0.40;0.40;;;11.20;72.00;;;;;;5095317;28;20048;-41
2021/04/14 08:56:54;;;;;;;1.23;0.60;;;11.20;72.00;;;;;;5095647;28;20043;-40
2021/04/14 08:59:21;;;;;;;0.60;0.60;;;11.20;72.00;;;;;;5093660;28;20123;-39
2021/04/14 09:01:48;;;;;;;0.30;0.30;;;11.10;71.90;;;;;;5095635;28;20071;-41
2021/04/14 09:04:14;;;;;;;1.02;0.60;;;11.20;71.90;;;;;;5108235;28;20047;-42
2021/04/14 09:06:45;;;;;;;0.77;0.40;;;11.30;71.90;;;;;;5115640;28;20556;-43
2021/04/14 09:09:17;;;;;;;1.45;0.40;;;11.30;71.90;;;;;;5115024;28;20047;-41
2021/04/14 09:11:44;;;;;;;0.30;0.30;;;11.30;71.90;;;;;;5115705;28;20100;-42
2021/04/14 09:14:26;;;;;;;0.30;0.30;;;11.30;71.80;;;;;;5115690;28;20144;-41
2021/04/14 09:17:02;;;;;;;0.47;0.47;;;11.30;71.80;;;;;;5115667;28;20067;-45
2021/04/14 09:19:52;;;;;;;0.60;0.60;;;11.30;71.80;;;;;;5114882;28;20055;-44
2021/04/14 09:22:29;;;;;;;0.60;0.60;;;11.30;71.70;;;;;;5115293;28;20552;-44
2021/04/14 09:25:11;;;;;;;0.45;0.40;;;11.30;71.70;;;;;;5114820;28;20066;-42
2021/04/14 09:27:38;;;;;;;0.43;0.43;;;11.30;71.70;;;;;;5115362;28;20052;-46
2021/04/14 09:30:09;;;;;;;0.60;0.40;;;11.30;71.70;;;;;;5114870;28;20040;-45
2021/04/14 09:32:57;;;;;;;0.30;0.30;;;11.40;71.70;;;;;;5112522;28;20044;-42
2021/04/14 09:35:29;;;;;;;0.65;0.40;;;11.40;71.70;;;;;;5113064;28;20122;-44
2021/04/14 09:38:08;;;;;;;0.70;0.32;;;11.40;71.70;;;;;;5112484;28;20062;-45
2021/04/14 09:40:35;;;;;;;2.22;0.50;;;11.40;71.70;;;;;;5111572;28;20453;-48
2021/04/14 09:43:22;;;;;;;0.40;0.30;;;11.40;71.70;;;;;;5114869;28;20071;-44
2021/04/14 09:46:07;;;;;;;0.77;0.57;;;11.40;71.70;;;;;;5113790;28;20491;-45
2021/04/14 09:48:38;;;;;;;;;;;11.40;71.70;;;;;;5112324;28;20046;-44
2021/04/14 09:51:27;;;;;;;0.88;0.52;;;11.40;71.70;;;;;;5114273;28;19928;-44
2021/04/14 09:53:58;;;;;;;1.17;0.30;;;11.40;71.60;;;;;;5111802;28;20040;-44
2021/04/14 09:56:28;;;;;;;0.40;0.40;;;11.40;71.60;;;;;;5114184;28;20048;-40
2021/04/14 09:59:09;;;;;;;0.80;0.60;;;11.40;71.60;;;;;;5108793;28;20057;-43
2021/04/14 10:01:37;;;;;;;0.30;0.30;;;11.40;71.60;;;;;;5111720;28;20407;-43
2021/04/14 10:04:17;;;;;;;0.40;0.40;;;11.40;71.60;;;;;;5113293;28;20044;-39
2021/04/14 10:06:42;;;;;;;0.90;0.30;;;11.40;71.60;;;;;;5105764;28;20048;-41
2021/04/14 10:09:22;;;;;;;0.30;0.30;;;11.30;71.40;;;;;;5114399;28;20044;-42
2021/04/14 10:11:48;;;;;;;0.73;0.50;;;11.50;71.50;;;;;;5112337;28;20464;-41
2021/04/14 10:14:20;;;;;;;1.65;0.77;;;11.50;71.50;;;;;;5108325;28;20039;-41
2021/04/14 10:16:46;;;;;;;0.95;0.60;;;11.50;71.50;;;;;;5112330;28;20039;-39
2021/04/14 10:19:26;;;;;;;1.05;0.32;;;11.50;71.50;;;;;;5110265;28;20507;-41
2021/04/14 10:21:51;;;;;;;0.40;0.40;;;11.50;71.40;;;;;;5110869;28;20050;-40
2021/04/14 10:24:19;;;;;;;0.40;0.40;;;11.50;71.40;;;;;;5113338;28;20051;-42
2021/04/14 10:26:54;;;;;;;1.45;0.50;;;11.50;71.40;;;;;;5112579;28;20043;-42
2021/04/14 10:29:22;;;;;;;;;;;11.60;71.40;;;;;;5112760;28;20047;-42
2021/04/14 10:31:48;;;;;;;0.57;0.40;;;11.60;71.40;;;;;;5113374;28;19974;-40
2021/04/14 10:34:29;;;;;;;0.30;0.30;;;11.60;71.40;;;;;;5111476;28;20484;-41
2021/04/14 10:36:55;;;;;;;0.57;0.32;;;11.60;71.40;;;;;;5110836;28;20040;-40
2021/04/14 10:39:31;;;;;;;0.73;0.50;;;11.60;71.40;;;;;;5113318;28;20051;-41
2021/04/14 10:41:59;;;;;;;0.50;0.50;;;11.60;71.40;;;;;;5109998;28;20047;-43
2021/04/14 10:44:28;;;;;;;0.30;0.30;;;11.60;71.30;;;;;;5113051;28;20050;-42
2021/04/14 10:47:05;;;;;;;0.52;0.52;;;11.60;71.30;;;;;;5110986;28;20483;-42
2021/04/14 10:49:32;;;;;;;0.30;0.30;;;11.70;71.30;;;;;;5112670;28;20429;-41
2021/04/14 10:52:34;;;;;;;0.47;0.30;;;11.70;71.30;;;;;;5113138;28;20053;-42
2021/04/14 10:55:05;;;;;;;0.50;0.40;;;11.70;71.20;;;;;;5050104;28;20064;-44
2021/04/14 10:57:37;;;;;;;0.60;0.38;;;11.70;71.20;;;;;;5048716;28;20048;-44
2021/04/14 11:00:25;;;;;;;0.45;0.45;;;11.70;71.20;;;;;;5050468;28;20106;-43
2021/04/14 11:02:52;;;;;;;0.47;0.45;;;11.70;71.20;;;;;;5050201;28;20041;-41
2021/04/14 11:05:20;;;;;;;0.30;0.30;;;11.80;71.20;;;;;;5048136;28;20166;-42
2021/04/14 11:07:50;;;;;;;0.30;0.30;;;11.70;71.10;;;;;;5067402;28;20049;-42
2021/04/14 11:10:29;;;;;;;0.40;0.40;;;11.80;71.20;;;;;;5050808;28;20493;-45
2021/04/14 11:12:56;;;;;;;0.30;0.30;;;11.80;71.10;;;;;;5048716;28;20106;-43
2021/04/14 11:15:27;;;;;;;0.43;0.30;;;11.80;71.10;;;;;;5050658;28;20401;-42
2021/04/14 11:17:58;;;;;;;1.08;0.30;;;11.80;71.10;;;;;;5049328;28;20057;-43
2021/04/14 11:20:36;;;;;;;0.40;0.40;;;11.80;71.10;;;;;;5049746;28;20494;-45
2021/04/14 11:23:02;;;;;;;0.88;0.68;;;11.80;71.10;;;;;;5050443;28;20107;-44
2021/04/14 11:25:31;;;;;;;0.30;0.30;;;11.80;71.00;;;;;;5049645;28;20471;-42
2021/04/14 11:28:18;;;;;;;1.35;0.32;;;11.80;71.00;;;;;;5049610;28;20052;-41
2021/04/14 11:30:55;;;;;;;0.35;0.30;;;11.80;70.90;;;;;;5086093;28;20052;-43
2021/04/14 11:33:43;;;;;;;0.50;0.50;;;11.90;71.00;;;;;;5112120;28;20055;-42
2021/04/14 11:36:24;;;;;;;0.30;0.30;;;11.90;70.90;;;;;;5111886;28;20047;-43
2021/04/14 11:39:23;;;;;;;0.38;0.22;;;11.90;70.90;;;;;;5110551;28;20380;-43
2021/04/14 11:42:14;;;;;;;0.73;0.30;;;11.90;70.90;;;;;;5068909;28;20052;-44
2021/04/14 11:45:00;;;;;;;0.45;0.40;;;11.90;70.90;;;;;;5069572;28;20048;-46
2021/04/14 11:47:25;;;;;;;;;;;11.90;70.90;;;;;;5070665;28;20203;-40
2021/04/14 11:49:51;;;;;;;;;;;11.90;70.90;;;;;;5073809;28;20007;-42
2021/04/14 11:52:33;;;;;;;0.63;0.30;;;11.90;70.90;;;;;;5074500;28;19959;-43
2021/04/14 11:55:10;;;;;;;0.73;0.50;;;11.90;70.90;;;;;;5074183;28;20526;-46
2021/04/14 11:57:42;;;;;;;0.68;0.35;;;11.90;70.80;;;;;;5074400;28;20052;-41
2021/04/14 12:00:28;;;;;;;1.42;0.80;;;11.90;70.80;;;;;;5073258;28;20044;-40
2021/04/14 12:03:02;;;;;;;2.38;0.68;;;12.00;70.80;;;;;;5074277;28;20064;-42
2021/04/14 12:05:28;;;;;;;0.50;0.30;;;11.90;70.80;;;;;;5073985;28;20149;-42
2021/04/14 12:07:53;;;;;;;0.63;0.63;;;11.90;70.80;;;;;;5074223;28;20099;-44
2021/04/14 12:10:19;;;;;;;1.35;0.47;;;12.00;70.80;;;;;;5073641;28;20051;-42
2021/04/14 12:12:48;;;;;;;0.30;0.30;;;12.00;70.80;;;;;;5073763;28;20420;-43
2021/04/14 12:15:14;;;;;;;0.38;0.38;;;12.00;70.80;;;;;;5073526;28;20045;-43
2021/04/14 12:17:40;;;;;;;0.80;0.40;;;12.00;70.70;;;;;;5100372;28;20043;-42
2021/04/14 12:20:06;;;;;;;0.30;0.30;;;12.00;70.70;;;;;;5116329;28;20058;-43
2021/04/14 12:22:32;;;;;;;0.90;0.40;;;12.00;70.70;;;;;;5116616;28;20043;-45
2021/04/14 12:24:59;;;;;;;0.40;0.40;;;12.00;70.70;;;;;;5116622;28;20502;-42
2021/04/14 12:27:25;;;;;;;0.32;0.32;;;12.00;70.70;;;;;;5116824;28;20055;-42
2021/04/14 12:29:51;;;;;;;0.50;0.50;;;12.00;70.70;;;;;;5116254;28;20035;-45
2021/04/14 12:32:17;;;;;;;0.40;0.40;;;12.00;70.60;;;;;;5115821;28;20047;-43
2021/04/14 12:34:43;;;;;;;0.30;0.30;;;12.00;70.60;;;;;;5116234;28;20591;-42
2021/04/14 12:37:09;;;;;;;0.68;0.68;;;12.00;70.60;;;;;;5116326;28;20118;-42
2021/04/14 12:39:34;;;;;;;0.38;0.30;;;12.10;70.70;;;;;;5116396;28;20043;-41
2021/04/14 12:42:00;;;;;;;0.80;0.50;;;12.00;70.60;;;;;;5115936;28;20048;-42
2021/04/14 12:44:28;;;;;;;1.55;0.50;;;12.10;70.60;;;;;;5115865;28;20046;-43
2021/04/14 12:46:56;;;;;;;1.10;0.77;;;12.10;70.60;;;;;;5115798;28;20100;-41
2021/04/14 12:49:22;;;;;;;0.25;0.25;;;12.10;70.60;;;;;;5116229;28;20071;-41
2021/04/14 12:51:58;;;;;;;0.32;0.30;;;12.10;70.60;;;;;;5115255;28;20078;-42
2021/04/14 12:54:39;;;;;;;0.65;0.30;;;12.10;70.60;;;;;;5115587;28;20047;-43
2021/04/14 12:57:04;;;;;;;0.30;0.30;;;12.10;70.50;;;;;;5113809;28;20044;-42
2021/04/14 12:59:47;;;;;;;0.32;0.30;;;12.10;70.50;;;;;;5115514;28;20096;-43
2021/04/14 13:02:23;;;;;;;0.43;0.30;;;12.10;70.50;;;;;;5113599;28;20047;-41
2021/04/14 13:05:23;;;;;;;0.30;0.30;;;12.10;70.50;;;;;;5113695;28;20075;-46
2021/04/14 13:08:02;;;;;;;0.55;0.50;;;12.10;70.50;;;;;;5113953;28;20039;-48
2021/04/14 13:10:51;;;;;;;0.60;0.30;;;12.10;70.50;;;;;;5113703;28;20044;-45
2021/04/14 13:13:17;;;;;;;0.30;0.30;;;12.10;70.50;;;;;;5114512;28;20502;-45